Time;durP1;ratioP1;P1;durP2;ratioP2;P2;SDS_P1;SDS_P2;PMS_P1;PMS_P2;Temp;Humidity;BMP_temperature;BMP_pressure;BME280_temperature;BME280_humidity;BME280_pressure;Samples;Min_cycle;Max_cycle;Signal;HPM_P1;HPM_P2
2022/07/02 00:01:59;;;;;;;5.85;3.00;;;18.00;67.90;;;;;;5017424;28;20030;-62
2022/07/02 00:04:33;;;;;;;9.68;3.58;;;18.00;68.00;;;;;;5005720;28;20030;-62
2022/07/02 00:06:59;;;;;;;6.65;2.83;;;18.00;68.10;;;;;;5016658;28;20068;-62
2022/07/02 00:09:27;;;;;;;7.13;3.08;;;18.00;68.20;;;;;;5016993;28;20046;-62
2022/07/02 00:11:57;;;;;;;9.23;3.22;;;17.90;68.30;;;;;;5011863;28;20128;-62
2022/07/02 00:14:24;;;;;;;6.20;2.78;;;17.90;68.30;;;;;;5011406;28;20069;-64
2022/07/02 00:16:53;;;;;;;5.30;3.00;;;17.90;68.40;;;;;;5017769;28;20036;-65
2022/07/02 00:19:20;;;;;;;6.25;2.85;;;17.90;68.40;;;;;;5017037;28;20033;-65
2022/07/02 00:21:46;;;;;;;7.95;3.20;;;17.90;68.40;;;;;;5017903;28;20026;-65
2022/07/02 00:24:12;;;;;;;6.93;2.90;;;17.90;68.60;;;;;;5016585;28;20030;-65
2022/07/02 00:26:39;;;;;;;7.75;2.97;;;17.90;68.60;;;;;;5017244;28;20487;-65
2022/07/02 00:29:33;;;;;;;5.22;2.58;;;17.80;68.60;;;;;;5010197;28;20032;-65
2022/07/02 00:31:59;;;;;;;7.78;3.13;;;17.80;68.60;;;;;;5013621;28;20032;-65
2022/07/02 00:34:25;;;;;;;6.30;3.35;;;17.80;68.70;;;;;;5015228;28;20033;-65
2022/07/02 00:36:51;;;;;;;7.40;2.80;;;17.80;68.70;;;;;;5018027;28;20431;-65
2022/07/02 00:39:17;;;;;;;8.80;3.42;;;17.70;68.70;;;;;;5016525;28;20105;-65
2022/07/02 00:41:44;;;;;;;6.53;2.80;;;17.70;68.80;;;;;;5017752;28;20041;-65
2022/07/02 00:44:10;;;;;;;7.15;3.05;;;17.70;68.90;;;;;;5012919;28;20478;-65
2022/07/02 00:46:37;;;;;;;6.18;3.17;;;17.70;68.90;;;;;;5016923;28;20099;-64
2022/07/02 00:49:03;;;;;;;8.10;2.88;;;17.60;69.00;;;;;;5015893;28;20022;-64
2022/07/02 00:51:29;;;;;;;6.18;3.25;;;17.60;69.00;;;;;;5012663;28;20363;-65
2022/07/02 00:53:55;;;;;;;6.00;2.80;;;17.60;69.00;;;;;;5016118;28;20044;-65
2022/07/02 00:56:20;;;;;;;5.35;2.75;;;17.60;69.10;;;;;;5016573;28;20026;-65
2022/07/02 00:58:46;;;;;;;6.07;2.97;;;17.60;69.10;;;;;;5017530;28;20104;-65
2022/07/02 01:01:12;;;;;;;6.95;3.13;;;17.60;69.20;;;;;;5015773;28;20038;-64
2022/07/02 01:03:42;;;;;;;7.38;3.03;;;17.60;69.20;;;;;;5014252;28;20156;-64
2022/07/02 01:06:07;;;;;;;6.07;2.97;;;17.50;69.20;;;;;;5014253;28;20161;-65
2022/07/02 01:11:18;;;;;;;6.60;3.05;;;17.50;69.40;;;;;;5015365;28;20021;-65
2022/07/02 01:13:44;;;;;;;5.70;3.10;;;17.50;69.50;;;;;;5014493;28;20087;-62
2022/07/02 01:16:10;;;;;;;6.90;3.47;;;17.50;69.50;;;;;;5015489;28;20026;-62
2022/07/02 01:18:37;;;;;;;8.77;3.83;;;17.40;69.40;;;;;;5021307;28;20447;-65
2022/07/02 01:21:03;;;;;;;7.50;3.90;;;17.50;69.50;;;;;;5020786;28;20025;-65
2022/07/02 01:23:29;;;;;;;7.30;3.53;;;17.40;70.10;;;;;;5022754;28;20034;-65
2022/07/02 01:25:55;;;;;;;9.35;4.10;;;17.40;69.60;;;;;;5019130;28;20032;-65
2022/07/02 01:28:21;;;;;;;6.72;3.55;;;17.40;69.60;;;;;;5026240;28;20026;-65
2022/07/02 01:30:47;;;;;;;7.25;3.65;;;17.40;69.60;;;;;;5023252;28;20433;-64
2022/07/02 01:33:13;;;;;;;7.43;3.92;;;17.40;69.60;;;;;;5033242;28;20386;-65
2022/07/02 01:35:38;;;;;;;9.68;3.53;;;17.40;69.70;;;;;;5034813;28;20034;-65
2022/07/02 01:38:04;;;;;;;7.22;3.72;;;17.40;69.70;;;;;;5015963;28;20022;-65
2022/07/02 01:40:30;;;;;;;8.95;3.75;;;17.40;69.80;;;;;;5019718;28;20022;-65
2022/07/02 01:42:56;;;;;;;6.88;3.55;;;17.30;69.80;;;;;;5031356;28;20029;-65
2022/07/02 01:45:21;;;;;;;8.35;3.88;;;17.30;69.80;;;;;;5022527;28;20124;-65
2022/07/02 01:47:47;;;;;;;7.95;3.80;;;17.30;69.80;;;;;;5031520;28;20073;-65
2022/07/02 01:50:13;;;;;;;8.35;3.97;;;17.30;69.80;;;;;;5035030;28;20026;-65
2022/07/02 01:52:38;;;;;;;7.20;3.42;;;17.30;69.90;;;;;;5024946;28;20033;-65
2022/07/02 01:55:05;;;;;;;6.45;3.13;;;17.20;69.90;;;;;;5018744;28;20421;-65
2022/07/02 01:57:35;;;;;;;8.07;4.10;;;17.20;70.00;;;;;;5028538;28;20328;-65
2022/07/02 02:00:03;;;;;;;7.88;3.53;;;17.20;70.00;;;;;;5016841;28;20474;-64
2022/07/02 02:02:30;;;;;;;7.45;3.58;;;17.10;70.00;;;;;;5015237;28;20347;-65
2022/07/02 02:04:56;;;;;;;7.65;3.60;;;17.10;70.00;;;;;;5013443;28;20038;-65
2022/07/02 02:07:21;;;;;;;7.22;3.40;;;17.10;70.00;;;;;;5013228;28;20065;-65
2022/07/02 02:09:47;;;;;;;7.05;3.47;;;17.10;70.00;;;;;;5014785;28;20046;-65
2022/07/02 02:12:13;;;;;;;6.43;3.15;;;17.10;70.10;;;;;;5014135;28;20116;-65
2022/07/02 02:14:38;;;;;;;7.47;3.42;;;17.10;70.10;;;;;;5013201;28;20029;-65
2022/07/02 02:17:04;;;;;;;6.70;3.22;;;17.00;70.00;;;;;;5013899;28;20057;-65
2022/07/02 02:19:30;;;;;;;6.95;3.38;;;17.00;70.10;;;;;;5015452;28;20029;-65
2022/07/02 02:21:56;;;;;;;7.07;3.08;;;17.00;70.20;;;;;;5013379;28;20049;-66
2022/07/02 02:24:22;;;;;;;6.28;3.20;;;17.00;70.20;;;;;;5013285;28;20053;-65
2022/07/02 02:26:47;;;;;;;6.10;2.97;;;17.00;70.10;;;;;;5015704;28;20109;-64
2022/07/02 02:29:13;;;;;;;6.80;3.60;;;16.90;70.10;;;;;;5034716;28;20041;-65
2022/07/02 02:31:39;;;;;;;7.65;3.35;;;16.90;70.10;;;;;;5014679;28;20041;-64
2022/07/02 02:34:05;;;;;;;8.40;3.58;;;16.90;70.20;;;;;;5016796;28;20044;-63
2022/07/02 02:36:30;;;;;;;7.50;3.30;;;16.90;70.20;;;;;;5015052;28;20041;-64
2022/07/02 02:38:56;;;;;;;6.55;3.05;;;16.90;70.20;;;;;;5029964;28;20029;-63
2022/07/02 02:41:22;;;;;;;5.90;3.00;;;16.90;70.30;;;;;;5019068;28;20038;-63
2022/07/02 02:43:47;;;;;;;7.03;3.30;;;16.90;70.30;;;;;;5014497;28;20467;-64
2022/07/02 02:46:13;;;;;;;5.32;2.80;;;16.90;70.60;;;;;;5014539;28;20024;-64
2022/07/02 02:48:39;;;;;;;7.35;3.28;;;16.80;70.40;;;;;;5010950;28;20509;-64
2022/07/02 02:51:06;;;;;;;7.30;3.20;;;16.80;70.30;;;;;;5020665;28;20129;-64
2022/07/02 02:53:32;;;;;;;6.97;3.35;;;16.80;70.40;;;;;;5025307;28;20037;-64
2022/07/02 02:55:59;;;;;;;7.43;3.45;;;16.80;70.40;;;;;;5018507;28;20026;-63
2022/07/02 02:58:25;;;;;;;7.13;3.08;;;16.80;70.40;;;;;;5014464;28;20025;-64
2022/07/02 03:00:51;;;;;;;6.97;3.15;;;16.70;70.40;;;;;;5020016;28;20462;-64
2022/07/02 03:03:17;;;;;;;5.82;3.17;;;16.70;70.40;;;;;;5016707;28;20119;-65
2022/07/02 03:05:42;;;;;;;6.07;3.03;;;16.70;70.50;;;;;;5020572;28;20069;-65
2022/07/02 03:08:08;;;;;;;6.28;3.08;;;16.70;70.50;;;;;;5017494;28;20095;-65
2022/07/02 03:10:33;;;;;;;8.00;2.90;;;16.70;70.60;;;;;;5021747;28;20124;-65
2022/07/02 03:12:59;;;;;;;6.90;3.72;;;16.70;70.60;;;;;;5010770;28;20044;-64
2022/07/02 03:15:26;;;;;;;5.80;2.85;;;16.70;70.60;;;;;;5014162;28;20036;-65
2022/07/02 03:17:51;;;;;;;6.80;3.17;;;16.70;70.60;;;;;;5012759;28;20030;-65
2022/07/02 03:20:17;;;;;;;7.03;3.08;;;16.70;70.60;;;;;;5014797;28;20419;-65
2022/07/02 03:22:43;;;;;;;7.85;3.10;;;16.70;70.60;;;;;;5011886;28;20084;-65
2022/07/02 03:25:11;;;;;;;7.70;3.47;;;16.60;70.60;;;;;;5011494;28;20517;-65
2022/07/02 03:27:37;;;;;;;5.47;2.67;;;16.60;70.60;;;;;;5020298;28;20139;-62
2022/07/02 03:30:04;;;;;;;6.72;3.28;;;16.60;71.30;;;;;;5034567;28;20112;-62
2022/07/02 03:32:31;;;;;;;6.00;3.38;;;16.60;70.70;;;;;;5021148;28;20044;-62
2022/07/02 03:34:56;;;;;;;7.50;3.55;;;16.60;70.70;;;;;;5020941;28;20057;-64
2022/07/02 03:37:26;;;;;;;7.82;3.97;;;16.60;70.70;;;;;;5025338;28;20060;-64
2022/07/02 03:39:52;;;;;;;6.50;3.30;;;16.60;70.80;;;;;;5019238;28;20030;-64
2022/07/02 03:42:18;;;;;;;6.35;3.03;;;16.60;70.80;;;;;;5012295;28;20415;-64
2022/07/02 03:44:43;;;;;;;7.03;3.58;;;16.60;70.90;;;;;;5013025;28;20060;-64
2022/07/02 03:47:09;;;;;;;7.53;3.72;;;16.60;70.90;;;;;;5012135;28;20117;-64
2022/07/02 03:49:35;;;;;;;7.90;3.58;;;16.70;71.10;;;;;;5012943;28;20030;-63
2022/07/02 03:52:01;;;;;;;6.97;3.55;;;16.70;71.10;;;;;;4991013;28;20431;-63
2022/07/02 03:54:27;;;;;;;7.15;3.28;;;16.70;71.20;;;;;;5010109;28;20088;-64
2022/07/02 03:56:52;;;;;;;6.90;3.35;;;16.80;71.30;;;;;;5000253;28;20030;-64
2022/07/02 03:59:18;;;;;;;6.05;3.08;;;16.80;71.30;;;;;;5014519;28;20037;-64
2022/07/02 04:01:44;;;;;;;7.20;3.85;;;16.80;71.30;;;;;;5012817;28;20029;-62
2022/07/02 04:04:09;;;;;;;7.70;3.45;;;16.80;71.30;;;;;;5001850;28;20033;-63
2022/07/02 04:06:35;;;;;;;10.00;3.53;;;16.80;71.30;;;;;;5017666;28;20107;-64
2022/07/02 04:09:01;;;;;;;7.18;3.75;;;16.80;71.30;;;;;;5012176;28;20502;-63
2022/07/02 04:11:26;;;;;;;6.78;3.47;;;16.80;71.30;;;;;;5014317;28;20203;-63
2022/07/02 04:13:52;;;;;;;6.95;3.65;;;16.80;71.40;;;;;;5012754;28;20048;-64
2022/07/02 04:16:18;;;;;;;7.50;3.70;;;16.80;71.40;;;;;;5012906;28;20320;-64
2022/07/02 04:18:43;;;;;;;8.48;4.13;;;16.80;71.50;;;;;;5011153;28;20034;-63
2022/07/02 04:21:09;;;;;;;6.45;3.45;;;16.80;71.40;;;;;;5014151;28;20099;-64
2022/07/02 04:23:35;;;;;;;6.05;3.40;;;16.80;71.40;;;;;;5011705;28;20024;-63
2022/07/02 04:26:00;;;;;;;7.82;3.90;;;16.80;71.40;;;;;;5011216;28;20057;-63
2022/07/02 04:28:27;;;;;;;7.82;4.15;;;16.80;71.50;;;;;;5010612;28;20410;-64
2022/07/02 04:30:52;;;;;;;6.57;3.83;;;16.90;71.50;;;;;;5014623;28;20073;-64
2022/07/02 04:33:18;;;;;;;6.80;3.58;;;16.90;71.50;;;;;;5011411;28;20061;-64
2022/07/02 04:35:44;;;;;;;7.28;3.58;;;16.90;71.50;;;;;;5019156;28;20029;-64
2022/07/02 04:38:10;;;;;;;9.50;4.53;;;16.90;71.50;;;;;;5015656;28;20053;-64
2022/07/02 04:40:35;;;;;;;8.88;3.88;;;16.90;71.50;;;;;;5017048;28;20024;-63
2022/07/02 04:43:01;;;;;;;8.20;3.85;;;16.90;71.60;;;;;;5014148;28;20450;-61
2022/07/02 04:45:27;;;;;;;8.57;3.92;;;17.00;71.70;;;;;;5012672;28;20478;-62
2022/07/02 04:47:52;;;;;;;8.52;4.20;;;17.00;71.60;;;;;;5010020;28;20034;-61
2022/07/02 04:50:18;;;;;;;10.63;4.35;;;17.10;71.70;;;;;;5017483;28;20029;-62
2022/07/02 04:52:48;;;;;;;6.80;3.67;;;17.20;71.70;;;;;;5012366;28;20443;-63
2022/07/02 04:55:14;;;;;;;7.18;4.00;;;17.20;71.70;;;;;;5017015;28;20390;-62
2022/07/02 04:57:40;;;;;;;7.57;4.13;;;17.30;71.80;;;;;;5017091;28;20022;-62
2022/07/02 05:00:07;;;;;;;8.10;3.90;;;17.30;71.70;;;;;;5016506;28;20033;-61
2022/07/02 05:02:33;;;;;;;7.68;4.38;;;17.40;71.40;;;;;;5016126;28;20041;-64
2022/07/02 05:04:59;;;;;;;7.43;3.67;;;17.40;71.30;;;;;;5013571;28;20676;-63
2022/07/02 05:07:25;;;;;;;8.40;4.13;;;17.50;71.20;;;;;;5028089;28;20073;-63
2022/07/02 05:09:50;;;;;;;8.20;3.92;;;17.40;71.00;;;;;;5017612;28;20054;-63
2022/07/02 05:12:16;;;;;;;9.65;4.15;;;17.50;70.90;;;;;;5019089;28;20026;-64
2022/07/02 05:14:42;;;;;;;6.85;3.72;;;17.50;70.80;;;;;;5014344;28;20042;-63
2022/07/02 05:17:07;;;;;;;7.80;3.72;;;17.50;70.70;;;;;;5016769;28;20367;-63
2022/07/02 05:19:33;;;;;;;7.72;3.67;;;17.50;70.50;;;;;;5011912;28;20029;-64
2022/07/02 05:21:59;;;;;;;9.20;3.90;;;17.60;70.20;;;;;;5014437;28;20032;-63
2022/07/02 05:24:24;;;;;;;8.00;3.92;;;17.70;70.00;;;;;;4978042;28;20486;-64
2022/07/02 05:26:50;;;;;;;8.98;4.10;;;18.00;69.50;;;;;;5017212;28;20088;-63
2022/07/02 05:29:16;;;;;;;6.85;3.53;;;18.20;68.60;;;;;;5021091;28;20033;-64
2022/07/02 05:31:41;;;;;;;6.90;3.58;;;18.50;67.70;;;;;;5009091;28;20107;-64
2022/07/02 05:34:07;;;;;;;6.93;3.45;;;18.50;67.40;;;;;;5015301;28;20057;-65
2022/07/02 05:36:33;;;;;;;7.75;3.38;;;18.50;67.60;;;;;;5015608;28;20026;-65
2022/07/02 05:38:58;;;;;;;6.28;3.25;;;18.40;67.50;;;;;;5014632;28;20116;-68
2022/07/02 05:41:24;;;;;;;6.13;3.30;;;18.40;67.50;;;;;;5014374;28;20447;-68
2022/07/02 05:43:49;;;;;;;6.68;3.08;;;18.40;67.60;;;;;;5015491;28;20109;-68
2022/07/02 05:46:15;;;;;;;7.75;3.30;;;18.70;67.20;;;;;;5012726;28;20026;-64
2022/07/02 05:48:41;;;;;;;5.90;2.90;;;18.90;66.50;;;;;;5011779;28;20023;-65
2022/07/02 05:51:07;;;;;;;8.60;3.08;;;19.20;65.90;;;;;;5014216;28;20028;-64
2022/07/02 05:53:32;;;;;;;8.57;2.90;;;19.30;65.40;;;;;;5013916;28;20045;-64
2022/07/02 05:55:58;;;;;;;6.32;3.17;;;19.50;64.70;;;;;;5011066;28;20076;-64
2022/07/02 05:58:24;;;;;;;6.70;3.10;;;19.60;64.20;;;;;;5012528;28;20026;-65
2022/07/02 06:00:49;;;;;;;8.52;3.15;;;19.50;64.30;;;;;;5010156;28;20058;-64
2022/07/02 06:03:15;;;;;;;7.13;2.83;;;19.50;64.60;;;;;;5010623;28;20026;-63
2022/07/02 06:08:25;;;;;;;6.10;2.55;;;19.50;64.20;;;;;;5013258;28;20041;-63
2022/07/02 06:10:52;;;;;;;4.43;2.17;;;19.50;64.30;;;;;;5014119;28;20351;-63
2022/07/02 06:13:18;;;;;;;6.38;2.28;;;19.50;64.30;;;;;;5014203;28;20037;-64
2022/07/02 06:15:44;;;;;;;5.63;1.90;;;19.50;64.20;;;;;;5013919;28;20030;-64
2022/07/02 06:18:09;;;;;;;6.05;1.90;;;19.60;64.30;;;;;;5014309;28;20026;-64
2022/07/02 06:20:35;;;;;;;5.53;2.00;;;19.60;64.00;;;;;;5013147;28;20046;-64
2022/07/02 06:23:01;;;;;;;5.47;1.63;;;19.70;63.40;;;;;;5013561;28;20037;-64
2022/07/02 06:25:26;;;;;;;4.20;1.42;;;19.70;62.70;;;;;;5027041;28;20025;-64
2022/07/02 06:27:52;;;;;;;4.63;1.65;;;19.80;62.20;;;;;;5016241;28;20114;-63
2022/07/02 06:30:18;;;;;;;5.07;1.60;;;19.80;61.80;;;;;;5011181;28;20033;-65
2022/07/02 06:32:44;;;;;;;3.45;1.20;;;19.80;61.60;;;;;;5012112;28;20030;-63
2022/07/02 06:35:11;;;;;;;4.40;1.48;;;19.80;61.50;;;;;;5011410;28;20049;-63
2022/07/02 06:37:37;;;;;;;4.80;1.50;;;19.80;60.80;;;;;;5013651;28;20025;-63
2022/07/02 06:40:03;;;;;;;5.10;1.60;;;19.90;60.60;;;;;;5012107;28;20049;-63
2022/07/02 06:42:29;;;;;;;3.45;1.05;;;19.90;60.40;;;;;;5011208;28;20061;-64
2022/07/02 06:44:58;;;;;;;2.47;1.23;;;20.00;59.90;;;;;;5012872;28;20367;-64
2022/07/02 06:47:24;;;;;;;3.50;1.38;;;20.10;59.40;;;;;;5012561;28;20065;-65
2022/07/02 06:49:50;;;;;;;3.13;1.38;;;20.30;58.90;;;;;;5011561;28;20084;-64
2022/07/02 06:52:17;;;;;;;4.03;1.27;;;20.30;58.60;;;;;;5014341;28;20100;-65
2022/07/02 06:54:43;;;;;;;3.28;1.27;;;20.40;58.50;;;;;;5016007;28;20053;-64
2022/07/02 06:57:10;;;;;;;3.53;1.23;;;20.40;58.30;;;;;;5015775;28;20037;-63
2022/07/02 06:59:36;;;;;;;4.85;1.63;;;20.40;57.90;;;;;;5015602;28;20317;-64
2022/07/02 07:02:02;;;;;;;3.88;1.42;;;20.60;57.50;;;;;;5014577;28;20042;-65
2022/07/02 07:04:28;;;;;;;3.53;1.40;;;20.80;56.90;;;;;;5015462;28;20360;-65
2022/07/02 07:06:55;;;;;;;3.47;1.30;;;21.00;56.70;;;;;;5015360;28;20026;-64
2022/07/02 07:09:24;;;;;;;4.22;1.20;;;21.00;56.40;;;;;;5015239;28;20049;-64
2022/07/02 07:11:50;;;;;;;3.10;0.98;;;21.00;56.00;;;;;;5015368;28;20045;-64
2022/07/02 07:14:16;;;;;;;3.72;1.00;;;21.30;55.90;;;;;;5015327;28;20091;-65
2022/07/02 07:16:42;;;;;;;3.63;0.98;;;21.40;55.60;;;;;;5014772;28;20038;-64
2022/07/02 07:19:07;;;;;;;3.58;1.27;;;21.50;55.10;;;;;;4998063;28;20508;-64
2022/07/02 07:21:34;;;;;;;4.57;1.40;;;21.50;54.80;;;;;;5005869;28;20062;-65
2022/07/02 07:24:00;;;;;;;2.42;1.00;;;21.50;54.90;;;;;;5029740;28;20459;-65
2022/07/02 07:26:26;;;;;;;3.17;1.38;;;21.50;54.50;;;;;;5014341;28;20037;-64
2022/07/02 07:28:52;;;;;;;3.70;1.20;;;21.80;53.80;;;;;;5019387;28;20022;-65
2022/07/02 07:31:20;;;;;;;2.53;1.00;;;22.00;53.10;;;;;;5035232;28;20039;-64
2022/07/02 07:33:50;;;;;;;3.72;1.23;;;22.30;52.50;;;;;;5018609;28;20072;-65
2022/07/02 07:36:17;;;;;;;2.95;0.95;;;22.60;51.50;;;;;;5020133;28;20113;-65
2022/07/02 07:38:43;;;;;;;3.15;0.90;;;22.90;51.20;;;;;;5014492;28;20041;-63
2022/07/02 07:41:09;;;;;;;3.00;1.08;;;23.10;50.70;;;;;;5033759;28;20022;-65
2022/07/02 07:43:34;;;;;;;2.15;0.80;;;23.30;50.10;;;;;;5020814;28;20026;-67
2022/07/02 07:46:00;;;;;;;3.42;1.20;;;23.50;49.50;;;;;;5012172;28;20041;-66
2022/07/02 07:48:26;;;;;;;3.55;1.08;;;23.70;49.20;;;;;;5012179;28;20026;-67
2022/07/02 07:50:52;;;;;;;4.03;0.80;;;23.90;48.90;;;;;;5014264;28;20124;-66
2022/07/02 07:53:17;;;;;;;2.95;0.82;;;24.00;48.50;;;;;;5011614;28;20062;-66
2022/07/02 07:55:43;;;;;;;1.73;0.65;;;24.20;48.00;;;;;;5012680;28;20492;-66
2022/07/02 07:58:09;;;;;;;3.30;1.02;;;24.30;47.40;;;;;;5013147;28;20462;-67
2022/07/02 08:00:35;;;;;;;1.25;0.60;;;24.50;47.40;;;;;;5014600;28;20432;-66
2022/07/02 08:03:01;;;;;;;1.30;0.63;;;24.60;46.90;;;;;;5024961;28;20037;-65
2022/07/02 08:05:26;;;;;;;3.08;0.90;;;24.80;46.70;;;;;;5016638;28;20030;-66
2022/07/02 08:07:52;;;;;;;1.77;0.90;;;24.90;46.40;;;;;;5012795;28;20034;-67
2022/07/02 08:10:18;;;;;;;4.43;1.25;;;25.00;46.20;;;;;;5012043;28;20057;-67
2022/07/02 08:12:44;;;;;;;1.15;0.70;;;25.10;45.80;;;;;;5030669;28;20057;-66
2022/07/02 08:15:10;;;;;;;4.35;1.15;;;25.20;45.40;;;;;;5015213;28;20018;-66
2022/07/02 08:17:37;;;;;;;4.38;0.90;;;25.30;45.30;;;;;;5018152;28;20328;-66
2022/07/02 08:20:04;;;;;;;4.05;1.10;;;25.40;45.30;;;;;;5017080;28;20396;-66
2022/07/02 08:22:31;;;;;;;1.40;0.70;;;25.50;45.30;;;;;;5017184;28;20025;-66
2022/07/02 08:24:57;;;;;;;1.67;0.75;;;25.60;45.20;;;;;;5030152;28;20367;-66
2022/07/02 08:27:23;;;;;;;3.47;0.88;;;25.60;45.10;;;;;;5015512;28;21392;-65
2022/07/02 08:29:49;;;;;;;3.53;0.98;;;25.70;44.80;;;;;;5013890;28;20111;-66
2022/07/02 08:32:14;;;;;;;4.10;1.20;;;25.70;44.50;;;;;;5014077;28;20021;-67
2022/07/02 08:34:40;;;;;;;2.47;1.10;;;25.80;44.40;;;;;;5003912;28;20460;-67
2022/07/02 08:37:06;;;;;;;3.80;1.50;;;25.90;44.30;;;;;;5012598;28;20021;-66
2022/07/02 08:39:32;;;;;;;2.75;0.95;;;26.00;44.30;;;;;;5012668;28;20030;-67
2022/07/02 08:41:59;;;;;;;5.95;1.30;;;26.10;44.20;;;;;;5027276;28;20034;-67
2022/07/02 08:44:25;;;;;;;3.88;1.08;;;26.20;44.00;;;;;;5009751;28;20030;-67
2022/07/02 08:46:51;;;;;;;4.93;1.15;;;26.20;43.90;;;;;;5027860;28;20034;-66
2022/07/02 08:49:21;;;;;;;4.93;1.15;;;26.30;43.80;;;;;;5012166;28;20041;-66
2022/07/02 08:52:02;;;;;;;2.42;0.80;;;26.40;43.50;;;;;;5012184;28;20045;-66
2022/07/02 08:54:27;;;;;;;1.63;0.90;;;26.50;43.20;;;;;;5010855;28;20041;-64
2022/07/02 08:56:54;;;;;;;3.75;1.10;;;26.50;43.20;;;;;;5011664;28;20026;-66
2022/07/02 08:59:20;;;;;;;2.58;0.80;;;26.60;43.40;;;;;;5009377;28;20074;-66
2022/07/02 09:01:47;;;;;;;2.55;0.70;;;26.60;43.30;;;;;;5011414;28;20450;-66
2022/07/02 09:04:14;;;;;;;4.15;1.23;;;26.80;43.10;;;;;;5025392;28;20026;-66
2022/07/02 09:06:41;;;;;;;3.70;1.00;;;26.90;42.80;;;;;;5013308;28;20113;-67
2022/07/02 09:09:08;;;;;;;3.88;0.98;;;27.00;42.90;;;;;;5011306;28;20485;-63
2022/07/02 09:11:35;;;;;;;2.35;0.90;;;27.00;42.60;;;;;;5011555;28;20021;-63
2022/07/02 09:14:02;;;;;;;4.45;1.00;;;27.10;42.80;;;;;;5009200;28;20112;-63
2022/07/02 09:16:27;;;;;;;2.50;0.93;;;27.20;42.30;;;;;;5012994;28;20133;-63
2022/07/02 09:18:53;;;;;;;3.97;0.93;;;27.30;42.10;;;;;;5014988;28;20965;-63
2022/07/02 09:21:19;;;;;;;2.58;1.00;;;27.40;41.90;;;;;;5016842;28;20034;-62
2022/07/02 09:23:47;;;;;;;3.75;1.10;;;27.20;41.90;;;;;;5014701;28;20041;-62
2022/07/02 09:26:20;;;;;;;3.40;1.15;;;26.90;42.30;;;;;;5016881;28;20464;-62
2022/07/02 09:28:59;;;;;;;2.03;0.90;;;26.60;42.30;;;;;;5019992;28;20117;-65
2022/07/02 09:31:29;;;;;;;2.30;0.98;;;26.50;42.50;;;;;;5026433;28;20083;-64
2022/07/02 09:33:55;;;;;;;2.42;1.08;;;26.40;42.90;;;;;;5033707;28;20391;-64
2022/07/02 09:36:21;;;;;;;3.17;0.90;;;26.50;42.90;;;;;;5019813;28;20032;-64
2022/07/02 09:38:52;;;;;;;2.50;0.98;;;26.70;42.60;;;;;;5031522;28;20033;-64
2022/07/02 09:41:23;;;;;;;2.65;0.70;;;26.90;42.50;;;;;;5024004;28;20049;-64
2022/07/02 09:43:58;;;;;;;4.93;1.02;;;27.10;42.40;;;;;;5016789;28;20029;-65
2022/07/02 09:46:24;;;;;;;3.67;1.20;;;27.30;42.20;;;;;;5016158;28;20080;-66
2022/07/02 09:48:50;;;;;;;3.70;0.93;;;27.40;42.30;;;;;;5017320;28;20058;-64
2022/07/02 09:51:16;;;;;;;2.10;1.08;;;27.60;42.10;;;;;;5016620;28;20109;-64
2022/07/02 09:53:54;;;;;;;2.22;0.90;;;27.70;41.60;;;;;;5016471;28;20030;-64
2022/07/02 09:56:21;;;;;;;5.53;2.10;;;27.90;41.60;;;;;;5016689;28;20049;-63
2022/07/02 09:58:47;;;;;;;4.63;1.50;;;27.90;41.50;;;;;;5015489;28;20033;-64
2022/07/02 10:01:21;;;;;;;2.80;1.10;;;28.00;41.40;;;;;;5019957;28;20030;-64
2022/07/02 10:03:54;;;;;;;3.17;1.30;;;28.10;41.00;;;;;;5016245;28;20033;-64
2022/07/02 10:06:20;;;;;;;2.92;1.02;;;28.10;40.60;;;;;;5015733;28;20048;-64
2022/07/02 10:08:48;;;;;;;3.08;1.02;;;28.10;40.80;;;;;;5016170;28;20104;-64
2022/07/02 10:11:15;;;;;;;2.88;0.98;;;28.10;40.60;;;;;;5016263;28;20029;-65
2022/07/02 10:13:42;;;;;;;3.75;0.90;;;28.20;40.50;;;;;;5011348;28;20041;-65
2022/07/02 10:16:15;;;;;;;2.53;0.90;;;28.20;40.10;;;;;;5015649;28;20083;-65
2022/07/02 10:18:44;;;;;;;3.38;0.90;;;28.20;40.00;;;;;;5015076;28;20026;-65
2022/07/02 10:21:13;;;;;;;3.63;1.00;;;28.40;40.00;;;;;;5006616;28;20117;-65
2022/07/02 10:23:41;;;;;;;2.83;1.10;;;28.50;40.00;;;;;;5013327;28;20109;-66
2022/07/02 10:26:06;;;;;;;1.92;1.00;;;28.60;39.60;;;;;;5015243;28;20467;-65
2022/07/02 10:28:34;;;;;;;1.60;1.00;;;28.50;39.40;;;;;;5015930;28;20053;-64
2022/07/02 10:31:00;;;;;;;2.00;0.77;;;28.50;39.60;;;;;;5014429;28;20045;-65
2022/07/02 10:33:45;;;;;;;3.58;0.90;;;28.20;39.90;;;;;;5023448;28;20118;-64
2022/07/02 10:36:13;;;;;;;3.28;1.00;;;27.90;39.80;;;;;;5020444;28;20033;-65
2022/07/02 10:38:39;;;;;;;3.90;0.85;;;28.00;40.20;;;;;;5026540;28;20025;-66
2022/07/02 10:41:07;;;;;;;4.47;1.00;;;28.10;40.20;;;;;;5020888;28;20117;-65
2022/07/02 10:43:34;;;;;;;3.35;1.02;;;28.10;40.40;;;;;;5013302;28;20109;-65
2022/07/02 10:46:05;;;;;;;4.32;1.35;;;28.10;40.20;;;;;;5009255;28;20180;-65
2022/07/02 10:48:46;;;;;;;2.63;0.80;;;28.20;40.10;;;;;;5013676;28;20034;-65
2022/07/02 10:51:22;;;;;;;2.88;0.95;;;28.20;40.10;;;;;;5015542;28;20026;-66
2022/07/02 10:53:49;;;;;;;1.83;0.90;;;28.20;40.10;;;;;;5013211;28;20029;-65
2022/07/02 10:56:15;;;;;;;2.28;0.90;;;28.20;39.80;;;;;;5009279;28;20068;-65
2022/07/02 10:58:40;;;;;;;1.83;0.90;;;28.30;39.60;;;;;;5015065;28;20081;-65
2022/07/02 11:01:12;;;;;;;2.78;0.77;;;28.40;39.40;;;;;;5013558;28;20033;-65
2022/07/02 11:03:50;;;;;;;2.58;0.90;;;28.50;39.20;;;;;;5012149;28;20056;-66
2022/07/02 11:06:22;;;;;;;1.83;0.80;;;28.70;39.00;;;;;;5012001;28;20030;-65
2022/07/02 11:08:50;;;;;;;3.42;0.90;;;28.70;38.30;;;;;;5014414;28;20470;-65
2022/07/02 11:11:16;;;;;;;2.60;1.23;;;28.70;38.40;;;;;;5011380;28;20457;-67
2022/07/02 11:13:45;;;;;;;2.20;0.90;;;28.80;38.20;;;;;;5012067;28;20045;-67
2022/07/02 11:16:27;;;;;;;1.38;0.65;;;28.40;38.20;;;;;;5012917;28;20113;-65
2022/07/02 11:18:57;;;;;;;2.22;0.90;;;28.10;38.40;;;;;;5005341;28;20141;-66
2022/07/02 11:21:24;;;;;;;1.35;0.85;;;27.70;38.90;;;;;;5013828;28;20386;-65
2022/07/02 11:23:51;;;;;;;2.55;1.00;;;27.40;39.40;;;;;;5014036;28;20093;-66
2022/07/02 11:26:20;;;;;;;4.32;1.02;;;27.20;39.70;;;;;;5025498;28;20033;-66
2022/07/02 11:28:46;;;;;;;1.65;0.65;;;26.90;39.70;;;;;;5009391;28;20109;-65
2022/07/02 11:31:12;;;;;;;2.15;0.90;;;26.80;40.20;;;;;;5009602;28;20113;-66
2022/07/02 11:34:00;;;;;;;3.33;0.90;;;26.70;40.50;;;;;;5012261;28;20140;-66
2022/07/02 11:36:26;;;;;;;3.60;1.05;;;26.60;40.70;;;;;;5014600;28;20205;-66
2022/07/02 11:38:53;;;;;;;4.05;1.10;;;26.50;40.80;;;;;;5013331;28;20088;-66
2022/07/02 11:41:24;;;;;;;2.85;1.10;;;26.50;40.70;;;;;;5013715;28;20026;-65
2022/07/02 11:43:55;;;;;;;4.07;1.00;;;26.50;40.40;;;;;;5021873;28;20037;-66
2022/07/02 11:46:23;;;;;;;2.88;1.20;;;26.50;40.40;;;;;;5010071;28;20026;-65
2022/07/02 11:48:50;;;;;;;3.80;1.30;;;26.40;40.60;;;;;;5011391;28;20419;-65
2022/07/02 11:51:19;;;;;;;3.33;0.90;;;26.40;40.50;;;;;;5012088;28;20048;-65
2022/07/02 11:53:55;;;;;;;2.50;0.73;;;26.50;40.70;;;;;;5013546;28;20117;-64
2022/07/02 11:56:21;;;;;;;3.13;1.02;;;26.50;40.40;;;;;;5011106;28;20041;-64
2022/07/02 11:58:48;;;;;;;2.08;0.90;;;26.40;40.60;;;;;;5012245;28;20111;-64
2022/07/02 12:01:17;;;;;;;1.95;0.93;;;26.20;40.80;;;;;;5012493;28;20034;-64
2022/07/02 12:03:45;;;;;;;3.50;1.35;;;26.10;40.70;;;;;;5013218;28;20069;-63
2022/07/02 12:06:10;;;;;;;4.00;1.13;;;26.00;40.80;;;;;;5004832;28;20459;-64
2022/07/02 12:08:36;;;;;;;2.78;0.95;;;25.90;40.90;;;;;;5013568;28;20036;-64
2022/07/02 12:11:14;;;;;;;2.00;0.88;;;25.90;41.10;;;;;;5012599;28;20038;-63
2022/07/02 12:13:40;;;;;;;2.60;1.00;;;26.10;41.10;;;;;;5011622;28;20054;-64
2022/07/02 12:16:08;;;;;;;4.38;1.10;;;26.20;41.20;;;;;;5012718;28;20467;-64
2022/07/02 12:18:34;;;;;;;2.70;0.95;;;26.20;41.10;;;;;;5011952;28;20403;-64
2022/07/02 12:21:14;;;;;;;5.90;1.10;;;26.40;41.20;;;;;;5012875;28;20076;-65
2022/07/02 12:23:48;;;;;;;2.58;1.00;;;26.40;42.10;;;;;;5010172;28;20040;-64
2022/07/02 12:26:20;;;;;;;1.88;0.88;;;26.40;41.30;;;;;;5011986;28;20136;-64
2022/07/02 12:31:48;;;;;;;3.15;1.08;;;26.20;41.30;;;;;;5016486;28;20045;-64
2022/07/02 12:34:15;;;;;;;4.38;1.27;;;26.30;41.20;;;;;;5014706;28;20108;-64
2022/07/02 12:36:48;;;;;;;3.88;0.93;;;26.20;40.80;;;;;;5021551;28;20060;-64
2022/07/02 12:39:15;;;;;;;2.22;0.90;;;26.10;40.70;;;;;;5019174;28;20036;-64
2022/07/02 12:41:41;;;;;;;2.35;0.80;;;26.00;41.00;;;;;;5018164;28;20033;-64
2022/07/02 12:44:18;;;;;;;1.77;0.90;;;26.00;41.00;;;;;;5015357;28;20061;-63
2022/07/02 12:46:51;;;;;;;3.67;1.00;;;26.20;41.30;;;;;;5019885;28;20026;-63
2022/07/02 12:49:19;;;;;;;4.55;1.27;;;26.20;41.10;;;;;;5017705;28;20467;-64
2022/07/02 12:51:59;;;;;;;2.17;1.00;;;26.20;41.80;;;;;;5017532;28;20026;-64
2022/07/02 12:54:39;;;;;;;2.10;1.00;;;26.20;41.40;;;;;;5018475;28;20033;-64
2022/07/02 12:57:18;;;;;;;2.45;0.98;;;26.20;41.00;;;;;;5018856;28;20443;-65